Main page
METAR-TAF:

METAR-TAF

Airports :

Searcy Municipal Airport

Searcy, Arkansas, United States

latitude: 35-12-43N, longitude: 091-44-14W, elevation: 266 ft

Current weather observation

The report was made 1 hour and 8 minutes ago, at 16:56 UTC
Wind 12 mph from the South/Southwest with gusts up to 21 mph
Temperature 82°F
Humidity 74%
Pressure 29.68 in. Hg
Visibility: 10 miles
Broken clouds at a height of 2600 ft
Overcast at a height of 3400 ft

METAR: KSRC 261656Z AUTO 20010G18KT 10SM BKN026 OVC034 28/23 A2968 RMK AO2 SLP048 P0001 T02780233

Time: 13:04 (18:04 UTC)


TAF: missing

Weather observations and forecasts of more than 4000 airports (METAR and TAF reports).

The available stations are represented by yellow and red dots on the map.

Hover mouse over dot to see the name of the station.

Then click to see weather observations and forecasts.

To change the map : click on the green buttons with a black cross to zoom in, on the green button with a dash to zoom out, or on the green arrows for adjacent maps.


METAR-TAF: